createdAt,value
2023-09-22T00:00:45.537Z,100284.11
2023-09-22T00:02:07.319Z,100284.46
2023-09-22T00:03:12.120Z,100286.45
2023-09-22T00:04:15.011Z,100288.09
2023-09-22T00:05:18.269Z,100283.17
2023-09-22T00:06:23.381Z,100284.33
2023-09-22T00:07:26.604Z,100283.85
2023-09-22T00:08:29.563Z,100280.86
2023-09-22T00:09:34.097Z,100279.63
2023-09-22T00:10:37.066Z,100277.69
2023-09-22T00:11:39.979Z,100278.78
2023-09-22T00:12:43.252Z,100277.38
2023-09-22T00:13:46.949Z,100277.57
2023-09-22T00:14:50.009Z,100279.86
2023-09-22T00:15:53.002Z,100279.10
2023-09-22T00:16:56.367Z,100276.06
2023-09-22T00:17:59.569Z,100274.70
2023-09-22T00:19:06.441Z,100276.56
2023-09-22T00:20:10.273Z,100268.09
2023-09-22T00:21:13.242Z,100269.36
2023-09-22T00:22:16.813Z,100268.33
2023-09-22T00:23:19.844Z,100265.18
2023-09-22T00:24:23.550Z,100264.23
2023-09-22T00:25:26.904Z,100262.34
2023-09-22T00:26:30.184Z,100266.75
2023-09-22T00:27:33.274Z,100265.13
2023-09-22T00:28:36.413Z,100260.77
2023-09-22T00:29:39.396Z,100261.16
2023-09-22T00:30:42.497Z,100263.71
2023-09-22T00:31:45.922Z,100260.13
2023-09-22T00:32:49.734Z,100259.45
2023-09-22T00:33:53.427Z,100255.33
2023-09-22T00:34:56.485Z,100256.30
2023-09-22T00:36:03.627Z,100255.44
2023-09-22T00:37:07.871Z,100257.08
2023-09-22T00:38:11.915Z,100256.37
2023-09-22T00:39:15.687Z,100251.45
2023-09-22T00:40:18.757Z,100254.83
2023-09-22T00:41:22.316Z,100247.49
2023-09-22T00:42:25.472Z,100249.67
2023-09-22T00:43:29.069Z,100249.89
2023-09-22T00:44:32.369Z,100248.96
2023-09-22T00:45:41.608Z,100244.55
2023-09-22T00:46:44.602Z,100244.51
2023-09-22T00:47:47.550Z,100244.19
2023-09-22T00:48:51.717Z,100242.23
2023-09-22T00:49:55.416Z,100244.68
2023-09-22T00:50:58.830Z,100243.38
2023-09-22T00:52:03.409Z,100242.14
2023-09-22T00:53:06.846Z,100243.69
2023-09-22T00:54:10.909Z,100239.56
2023-09-22T00:55:14.088Z,100236.08
2023-09-22T00:56:20.952Z,100232.71
2023-09-22T00:57:24.266Z,100233.14
2023-09-22T00:58:27.402Z,100230.91
2023-09-22T00:59:30.361Z,100230.50
2023-09-22T01:00:33.666Z,100232.90
2023-09-22T01:01:37.000Z,100229.65
2023-09-22T01:02:40.738Z,100227.75
2023-09-22T01:03:44.289Z,100228.02
2023-09-22T01:04:47.555Z,100226.23
2023-09-22T01:05:51.859Z,100223.21
2023-09-22T01:06:56.555Z,100227.20
2023-09-22T01:07:59.515Z,100223.08
2023-09-22T01:09:06.918Z,100220.23
2023-09-22T01:10:10.985Z,100219.86
2023-09-22T01:11:14.796Z,100217.90
2023-09-22T01:12:17.851Z,100220.95
2023-09-22T01:13:20.992Z,100223.72
2023-09-22T01:14:23.961Z,100223.84
2023-09-22T01:15:27.035Z,100221.88
2023-09-22T01:16:33.804Z,100217.23
2023-09-22T01:17:36.811Z,100219.05
2023-09-22T01:18:39.806Z,100217.41
2023-09-22T01:19:43.223Z,100212.26
2023-09-22T01:20:46.816Z,100216.83
2023-09-22T01:21:50.232Z,100215.16
2023-09-22T01:22:53.604Z,100212.89
2023-09-22T01:23:56.996Z,100214.69
2023-09-22T01:24:59.992Z,100214.63
2023-09-22T01:26:02.883Z,100213.11
2023-09-22T01:27:06.868Z,100211.20
2023-09-22T01:28:11.061Z,100214.92
2023-09-22T01:29:14.418Z,100212.68
2023-09-22T01:30:17.978Z,100209.87
2023-09-22T01:32:58.814Z,100209.50
2023-09-22T01:34:03.328Z,100209.74
2023-09-22T01:35:09.625Z,100209.58
2023-09-22T01:36:14.921Z,100210.94
2023-09-22T01:37:18.829Z,100206.98
2023-09-22T01:38:26.422Z,100210.80
2023-09-22T01:39:30.024Z,100213.19
2023-09-22T01:40:33.468Z,100212.13
2023-09-22T01:41:36.955Z,100209.95
2023-09-22T01:42:40.132Z,100210.01
2023-09-22T01:43:43.327Z,100210.44
2023-09-22T01:44:46.262Z,100209.63
2023-09-22T01:45:49.349Z,100208.05
2023-09-22T01:46:52.415Z,100208.55
2023-09-22T01:47:55.307Z,100207.42
2023-09-22T01:48:58.542Z,100209.67
2023-09-22T01:50:01.535Z,100208.59
2023-09-22T01:51:05.042Z,100206.79
2023-09-22T01:52:07.996Z,100211.52
2023-09-22T01:53:12.146Z,100208.54
2023-09-22T01:54:15.526Z,100204.11
2023-09-22T01:55:18.577Z,100202.05
2023-09-22T01:56:22.561Z,100198.95
2023-09-22T01:57:25.567Z,100197.39
2023-09-22T01:58:28.643Z,100198.03
2023-09-22T01:59:31.751Z,100193.88
2023-09-22T02:00:35.828Z,100189.22
2023-09-22T02:01:38.792Z,100186.40
2023-09-22T02:02:44.596Z,100184.28
2023-09-22T02:03:48.132Z,100181.41
2023-09-22T02:04:51.325Z,100178.93
2023-09-22T02:05:54.868Z,100177.74
2023-09-22T02:06:58.304Z,100179.38
2023-09-22T02:08:01.415Z,100179.66
2023-09-22T02:09:05.378Z,100178.19
2023-09-22T02:10:11.189Z,100177.85
2023-09-22T02:11:14.234Z,100174.69
2023-09-22T02:12:17.151Z,100175.67
2023-09-22T02:13:20.112Z,100175.67
2023-09-22T02:14:23.103Z,100174.48
2023-09-22T02:15:26.277Z,100170.35
2023-09-22T02:16:29.483Z,100170.40
2023-09-22T02:17:32.990Z,100168.17
2023-09-22T02:18:36.835Z,100165.08
2023-09-22T02:19:39.885Z,100167.85
2023-09-22T02:20:43.437Z,100166.55
2023-09-22T02:21:47.291Z,100164.12
2023-09-22T02:22:51.592Z,100161.31
2023-09-22T02:23:55.006Z,100156.64
2023-09-22T02:24:58.596Z,100158.17
2023-09-22T02:26:08.452Z,100154.70
2023-09-22T02:27:11.473Z,100153.34
2023-09-22T02:28:14.495Z,100151.77
2023-09-22T02:29:17.442Z,100147.50
2023-09-22T02:30:20.995Z,100146.76
2023-09-22T02:31:25.330Z,100146.97
2023-09-22T02:32:28.273Z,100147.03
2023-09-22T02:33:31.998Z,100147.93
2023-09-22T02:34:35.959Z,100148.69
2023-09-22T02:35:42.548Z,100146.41
2023-09-22T02:36:46.399Z,100143.86
2023-09-22T02:37:50.306Z,100141.48
2023-09-22T02:38:54.161Z,100137.61
2023-09-22T02:39:57.430Z,100135.07
2023-09-22T02:41:00.416Z,100134.52
2023-09-22T02:43:54.602Z,100133.90
2023-09-22T02:45:10.181Z,100130.30
2023-09-22T02:46:13.296Z,100129.05
2023-09-22T02:47:17.445Z,100131.93
2023-09-22T02:48:20.515Z,100128.49
2023-09-22T02:49:24.255Z,100127.52
2023-09-22T02:50:27.187Z,100125.19
2023-09-22T02:51:30.544Z,100123.81
2023-09-22T02:52:34.121Z,100124.30
2023-09-22T02:53:37.179Z,100127.94
2023-09-22T02:54:40.355Z,100125.27
2023-09-22T02:55:43.363Z,100128.73
2023-09-22T02:56:46.328Z,100131.83
2023-09-22T02:57:49.483Z,100131.52
2023-09-22T02:58:52.574Z,100133.67
2023-09-22T02:59:55.944Z,100134.07
2023-09-22T03:00:59.098Z,100128.98
2023-09-22T03:02:02.165Z,100132.20
2023-09-22T03:03:06.591Z,100135.40
2023-09-22T03:04:10.920Z,100136.48
2023-09-22T03:05:18.656Z,100137.20
2023-09-22T03:06:23.908Z,100139.63
2023-09-22T03:07:26.928Z,100140.23
2023-09-22T03:08:32.778Z,100141.05
2023-09-22T03:09:35.755Z,100141.12
2023-09-22T03:10:40.893Z,100142.55
2023-09-22T03:11:44.272Z,100143.41
2023-09-22T03:12:52.362Z,100145.85
2023-09-22T03:13:55.242Z,100147.11
2023-09-22T03:14:58.206Z,100149.33
2023-09-22T03:16:02.176Z,100149.06
2023-09-22T03:17:05.490Z,100149.13
2023-09-22T03:18:08.551Z,100149.14
2023-09-22T03:19:11.593Z,100149.73
2023-09-22T03:20:15.039Z,100149.41
2023-09-22T03:21:23.776Z,100145.55
2023-09-22T03:22:27.291Z,100147.02
2023-09-22T03:23:30.165Z,100146.84
2023-09-22T03:24:33.168Z,100144.89
2023-09-22T03:25:36.258Z,100140.40
2023-09-22T03:26:39.689Z,100142.48
2023-09-22T03:27:42.613Z,100143.08
2023-09-22T03:28:47.586Z,100143.05
2023-09-22T03:29:50.681Z,100140.81
2023-09-22T03:30:53.618Z,100142.13
2023-09-22T03:31:56.918Z,100137.67
2023-09-22T03:33:00.187Z,100139.92
2023-09-22T03:34:03.822Z,100137.92
2023-09-22T03:35:08.395Z,100133.63
2023-09-22T03:36:11.566Z,100134.77
2023-09-22T03:37:14.856Z,100132.87
2023-09-22T03:38:18.044Z,100130.98
2023-09-22T03:39:23.106Z,100126.71
2023-09-22T03:40:42.040Z,100126.66
2023-09-22T03:41:46.255Z,100119.34
2023-09-22T03:42:49.279Z,100122.44
2023-09-22T03:43:52.481Z,100120.91
2023-09-22T03:44:55.362Z,100119.67
2023-09-22T03:45:58.633Z,100118.85
2023-09-22T03:47:01.632Z,100117.55
2023-09-22T03:48:05.220Z,100116.25
2023-09-22T03:49:08.960Z,100118.22
2023-09-22T03:50:12.243Z,100116.39
2023-09-22T03:51:15.566Z,100111.50
2023-09-22T03:52:18.530Z,100107.71
2023-09-22T03:53:22.286Z,100105.54
2023-09-22T03:54:25.544Z,100105.86
2023-09-22T03:55:28.527Z,100103.21
2023-09-22T03:56:33.097Z,100107.92
2023-09-22T03:57:36.461Z,100109.77
2023-09-22T03:58:41.245Z,100112.59
2023-09-22T03:59:44.230Z,100110.77
2023-09-22T04:00:47.715Z,100111.40
2023-09-22T04:01:52.529Z,100111.39
2023-09-22T04:02:55.641Z,100109.07
2023-09-22T04:03:58.988Z,100110.32
2023-09-22T04:05:02.169Z,100111.03
2023-09-22T04:06:06.282Z,100111.17
2023-09-22T04:07:09.221Z,100107.16
2023-09-22T04:08:12.030Z,100107.29
2023-09-22T04:09:15.049Z,100109.09
2023-09-22T04:10:18.185Z,100113.11
2023-09-22T04:11:21.781Z,100113.11
2023-09-22T04:12:24.768Z,100112.30
2023-09-22T04:13:28.368Z,100110.88
2023-09-22T04:14:31.823Z,100110.29
2023-09-22T04:15:35.001Z,100110.88
2023-09-22T04:16:37.983Z,100113.70
2023-09-22T04:17:41.027Z,100114.11
2023-09-22T04:18:44.566Z,100117.96
2023-09-22T04:19:50.735Z,100120.45
2023-09-22T04:20:53.824Z,100117.59
2023-09-22T04:21:57.831Z,100112.00
2023-09-22T04:23:00.832Z,100112.21
2023-09-22T04:24:04.829Z,100109.92
2023-09-22T04:25:12.621Z,100110.48
2023-09-22T04:26:17.682Z,100107.44
2023-09-22T04:27:20.646Z,100111.23
2023-09-22T04:28:26.609Z,100111.45
2023-09-22T04:29:31.212Z,100111.45
2023-09-22T04:30:36.243Z,100115.95
2023-09-22T04:31:39.646Z,100117.31
2023-09-22T04:32:44.265Z,100117.09
2023-09-22T04:33:48.381Z,100118.83
2023-09-22T04:34:54.751Z,100118.17
2023-09-22T04:35:58.180Z,100115.45
2023-09-22T04:37:05.516Z,100112.51
2023-09-22T04:38:10.353Z,100109.58
2023-09-22T04:39:15.666Z,100109.96
2023-09-22T04:40:38.228Z,100110.66
2023-09-22T04:41:42.049Z,100107.45
2023-09-22T04:42:46.198Z,100107.43
2023-09-22T04:43:49.396Z,100111.89
2023-09-22T04:44:53.143Z,100106.63
2023-09-22T04:45:56.158Z,100107.48
2023-09-22T04:46:59.369Z,100106.52
2023-09-22T04:48:06.253Z,100107.98
2023-09-22T04:49:11.316Z,100109.55
2023-09-22T04:50:18.913Z,100114.00
2023-09-22T04:51:21.792Z,100112.92
2023-09-22T04:52:25.066Z,100113.02
2023-09-22T04:53:29.381Z,100111.77
2023-09-22T04:54:32.914Z,100107.77
2023-09-22T04:55:38.993Z,100107.10
2023-09-22T04:56:42.021Z,100105.36
2023-09-22T04:57:45.192Z,100100.27
2023-09-22T04:58:48.806Z,100101.13
2023-09-22T04:59:54.314Z,100102.42
2023-09-22T05:00:59.092Z,100102.27
2023-09-22T05:02:02.047Z,100105.09
2023-09-22T05:03:08.820Z,100110.55
2023-09-22T05:04:12.564Z,100112.56
2023-09-22T05:05:20.119Z,100111.48
2023-09-22T05:06:23.115Z,100111.88
2023-09-22T05:07:29.163Z,100113.25
2023-09-22T05:08:32.734Z,100108.79
2023-09-22T05:09:35.560Z,100110.64
2023-09-22T05:10:38.532Z,100113.40
2023-09-22T05:11:41.370Z,100113.55
2023-09-22T05:12:44.539Z,100114.84
2023-09-22T05:13:47.599Z,100110.94
2023-09-22T05:14:50.727Z,100110.34
2023-09-22T05:15:53.754Z,100108.17
2023-09-22T05:16:56.669Z,100112.27
2023-09-22T05:17:59.595Z,100110.04
2023-09-22T05:19:02.659Z,100110.58
2023-09-22T05:20:13.145Z,100105.67
2023-09-22T05:21:16.297Z,100101.66
2023-09-22T05:22:19.188Z,100099.27
2023-09-22T05:23:24.295Z,100094.84
2023-09-22T05:24:28.093Z,100093.32
2023-09-22T05:25:31.687Z,100092.27
2023-09-22T05:26:36.067Z,100090.75
2023-09-22T05:27:42.026Z,100094.45
2023-09-22T05:28:45.320Z,100095.08
2023-09-22T05:29:48.509Z,100096.56
2023-09-22T05:30:51.598Z,100098.19
2023-09-22T05:31:54.649Z,100096.91
2023-09-22T05:32:57.577Z,100093.36
2023-09-22T05:34:00.689Z,100094.97
2023-09-22T05:35:04.238Z,100093.91
2023-09-22T05:36:07.701Z,100097.15
2023-09-22T05:37:12.328Z,100101.66
2023-09-22T05:38:15.204Z,100102.70
2023-09-22T05:39:18.062Z,100100.54
2023-09-22T05:40:21.141Z,100101.27
2023-09-22T05:41:24.375Z,100099.07
2023-09-22T05:42:27.326Z,100099.75
2023-09-22T05:43:32.264Z,100099.78
2023-09-22T05:44:35.674Z,100094.60
2023-09-22T05:45:38.876Z,100096.56
2023-09-22T05:46:42.112Z,100096.38
2023-09-22T05:47:44.968Z,100093.85
2023-09-22T05:48:48.309Z,100094.30
2023-09-22T05:49:51.413Z,100098.66
2023-09-22T05:50:58.976Z,100098.04
2023-09-22T05:52:02.302Z,100098.33
2023-09-22T05:53:05.656Z,100104.67
2023-09-22T05:54:09.638Z,100103.38
2023-09-22T05:55:13.644Z,100105.43
2023-09-22T05:56:16.963Z,100100.55
2023-09-22T05:57:19.957Z,100103.31
2023-09-22T05:58:22.954Z,100101.77
2023-09-22T05:59:29.032Z,100103.74
2023-09-22T06:00:33.233Z,100108.48
2023-09-22T06:01:38.810Z,100104.31
2023-09-22T06:02:42.011Z,100107.38
2023-09-22T06:03:45.864Z,100106.06
2023-09-22T06:04:48.919Z,100110.75
2023-09-22T06:05:51.953Z,100116.94
2023-09-22T06:06:55.595Z,100112.45
2023-09-22T06:08:00.339Z,100113.73
2023-09-22T06:09:05.004Z,100107.69
2023-09-22T06:10:09.936Z,100110.10
2023-09-22T06:11:12.978Z,100112.71
2023-09-22T06:12:16.097Z,100110.80
2023-09-22T06:13:19.203Z,100115.41
2023-09-22T06:14:22.161Z,100114.38
2023-09-22T06:15:25.044Z,100109.75
2023-09-22T06:16:27.993Z,100107.70
2023-09-22T06:17:31.586Z,100107.84
2023-09-22T06:18:35.126Z,100113.59
2023-09-22T06:19:38.060Z,100105.41
2023-09-22T06:20:40.957Z,100107.10
2023-09-22T06:21:44.837Z,100101.25
2023-09-22T06:22:54.133Z,100098.01
2023-09-22T06:23:57.813Z,100099.60
2023-09-22T06:25:00.847Z,100097.04
2023-09-22T06:26:11.833Z,100094.16
2023-09-22T06:27:14.976Z,100093.58
2023-09-22T06:28:20.049Z,100096.99
2023-09-22T06:29:23.511Z,100098.84
2023-09-22T06:30:26.755Z,100094.84
2023-09-22T06:31:29.709Z,100099.48
2023-09-22T06:32:32.692Z,100104.56
2023-09-22T06:33:35.733Z,100106.79
2023-09-22T06:34:38.762Z,100106.77
2023-09-22T06:35:41.890Z,100107.47
2023-09-22T06:36:44.805Z,100103.44
2023-09-22T06:37:47.703Z,100096.23
2023-09-22T06:38:51.854Z,100096.11
2023-09-22T06:39:55.034Z,100095.16
2023-09-22T06:40:57.958Z,100102.27
2023-09-22T06:42:00.901Z,100102.08
2023-09-22T06:43:20.509Z,100110.74
2023-09-22T06:44:29.042Z,100113.32
2023-09-22T06:45:35.631Z,100104.44
2023-09-22T06:46:38.615Z,100105.48
2023-09-22T06:47:45.107Z,100107.52
2023-09-22T06:48:48.239Z,100109.04
2023-09-22T06:49:51.361Z,100107.08
2023-09-22T06:50:55.222Z,100110.53
2023-09-22T06:51:58.325Z,100114.05
2023-09-22T06:53:01.274Z,100117.42
2023-09-22T06:54:05.356Z,100118.90
2023-09-22T06:55:12.716Z,100118.98
2023-09-22T06:56:15.826Z,100123.45
2023-09-22T06:57:18.673Z,100126.77
2023-09-22T06:58:22.617Z,100128.21
2023-09-22T06:59:26.926Z,100127.52
2023-09-22T07:00:30.340Z,100125.55
2023-09-22T07:01:34.056Z,100121.95
2023-09-22T07:02:37.211Z,100121.71
2023-09-22T07:03:41.867Z,100122.27
2023-09-22T07:04:45.230Z,100125.56
2023-09-22T07:05:48.492Z,100124.06
2023-09-22T07:06:53.647Z,100127.09
2023-09-22T07:07:56.655Z,100126.95
2023-09-22T07:08:59.597Z,100127.58
2023-09-22T07:10:04.397Z,100129.83
2023-09-22T07:11:12.135Z,100127.20
2023-09-22T07:12:15.523Z,100130.19
2023-09-22T07:13:18.296Z,100129.34
2023-09-22T07:14:21.159Z,100128.19
2023-09-22T07:15:24.350Z,100130.30
2023-09-22T07:16:27.567Z,100131.05
2023-09-22T07:17:30.873Z,100129.46
2023-09-22T07:18:33.869Z,100134.40
2023-09-22T07:19:39.872Z,100136.61
2023-09-22T07:20:46.077Z,100131.27
2023-09-22T07:21:50.289Z,100126.57
2023-09-22T07:22:53.378Z,100126.77
2023-09-22T07:23:57.573Z,100128.21
2023-09-22T07:25:01.128Z,100141.54
2023-09-22T07:26:06.212Z,100133.13
2023-09-22T07:27:09.606Z,100130.02
2023-09-22T07:28:12.807Z,100129.02
2023-09-22T07:29:18.301Z,100126.91
2023-09-22T07:30:21.189Z,100124.45
2023-09-22T07:31:29.630Z,100124.52
2023-09-22T07:32:33.045Z,100134.50
2023-09-22T07:33:36.093Z,100121.88
2023-09-22T07:34:39.403Z,100124.96
2023-09-22T07:35:43.267Z,100118.27
2023-09-22T07:36:46.533Z,100117.84
2023-09-22T07:37:49.590Z,100121.66
2023-09-22T07:38:53.162Z,100121.86
2023-09-22T07:39:56.064Z,100127.37
2023-09-22T07:41:00.218Z,100120.25
2023-09-22T07:42:04.307Z,100121.69
2023-09-22T07:43:08.339Z,100117.48
2023-09-22T07:44:11.431Z,100117.29
2023-09-22T07:45:14.425Z,100115.55
2023-09-22T07:46:17.571Z,100116.97
2023-09-22T07:47:20.549Z,100117.88
2023-09-22T07:48:23.703Z,100117.24
2023-09-22T07:49:27.331Z,100114.48
2023-09-22T07:50:30.866Z,100116.04
2023-09-22T07:51:34.995Z,100118.69
2023-09-22T07:52:38.338Z,100117.77
2023-09-22T07:53:41.570Z,100119.28
2023-09-22T07:54:46.544Z,100120.95
2023-09-22T07:55:49.720Z,100110.88
2023-09-22T07:56:52.640Z,100116.86
2023-09-22T07:57:55.765Z,100115.91
2023-09-22T07:59:12.845Z,100116.81
2023-09-22T08:00:20.368Z,100115.42
2023-09-22T08:01:25.730Z,100115.67
2023-09-22T08:02:28.739Z,100115.67
2023-09-22T08:03:31.670Z,100116.10
2023-09-22T08:04:35.828Z,100116.59
2023-09-22T08:05:40.768Z,100126.84
2023-09-22T08:06:44.303Z,100121.05
2023-09-22T08:07:48.800Z,100121.39
2023-09-22T08:08:53.149Z,100130.66
2023-09-22T08:09:56.383Z,100127.20
2023-09-22T08:11:00.947Z,100128.41
2023-09-22T08:12:05.710Z,100134.54
2023-09-22T08:13:09.022Z,100130.27
2023-09-22T08:14:12.041Z,100131.87
2023-09-22T08:15:16.175Z,100133.40
2023-09-22T08:16:19.985Z,100135.88
2023-09-22T08:17:22.951Z,100134.73
2023-09-22T08:18:25.958Z,100143.62
2023-09-22T08:19:29.099Z,100147.30
2023-09-22T08:20:33.086Z,100139.00
2023-09-22T08:21:36.365Z,100131.22
2023-09-22T08:22:41.826Z,100132.27
2023-09-22T08:23:49.328Z,100130.09
2023-09-22T08:24:55.496Z,100129.53
2023-09-22T08:25:58.679Z,100123.45
2023-09-22T08:27:02.608Z,100140.17
2023-09-22T08:28:05.830Z,100131.15
2023-09-22T08:29:10.662Z,100135.22
2023-09-22T08:30:13.834Z,100134.30
2023-09-22T08:31:17.120Z,100133.46
2023-09-22T08:32:20.203Z,100144.17
2023-09-22T08:33:23.988Z,100132.39
2023-09-22T08:34:27.322Z,100136.50
2023-09-22T08:35:30.409Z,100132.74
2023-09-22T08:36:34.585Z,100142.94
2023-09-22T08:37:39.664Z,100140.88
2023-09-22T08:38:43.135Z,100131.69
2023-09-22T08:39:46.358Z,100134.02
2023-09-22T08:40:49.396Z,100132.91
2023-09-22T08:41:52.820Z,100132.16
2023-09-22T08:42:57.217Z,100135.83
2023-09-22T08:44:00.767Z,100132.47
2023-09-22T08:45:04.395Z,100133.33
2023-09-22T08:46:07.543Z,100134.27
2023-09-22T08:47:10.820Z,100134.55
2023-09-22T08:48:14.043Z,100128.10
2023-09-22T08:49:17.273Z,100121.21
2023-09-22T08:50:21.131Z,100120.47
2023-09-22T08:51:24.220Z,100117.50
2023-09-22T08:52:28.683Z,100111.33
2023-09-22T08:53:31.547Z,100107.71
2023-09-22T08:54:36.017Z,100109.23
2023-09-22T08:55:41.896Z,100113.77
2023-09-22T08:56:45.383Z,100108.23
2023-09-22T08:57:50.110Z,100118.42
2023-09-22T08:58:53.147Z,100109.98
2023-09-22T08:59:58.154Z,100109.81
2023-09-22T09:01:03.499Z,100109.48
2023-09-22T09:02:07.501Z,100106.04
2023-09-22T09:03:11.400Z,100110.67
2023-09-22T09:04:33.358Z,100105.09
2023-09-22T09:05:38.044Z,100098.10
2023-09-22T09:06:48.775Z,100097.42
2023-09-22T09:07:53.102Z,100097.78
2023-09-22T09:09:10.891Z,100098.59
2023-09-22T09:10:26.343Z,100099.11
2023-09-22T09:11:29.548Z,100097.68
2023-09-22T09:12:34.579Z,100095.38
2023-09-22T09:13:39.127Z,100098.23
2023-09-22T09:14:43.881Z,100101.33
2023-09-22T09:15:52.059Z,100101.21
2023-09-22T09:16:58.348Z,100104.42
2023-09-22T09:18:09.128Z,100098.82
2023-09-22T09:19:18.932Z,100097.90
2023-09-22T09:20:21.992Z,100098.64
2023-09-22T09:21:24.861Z,100100.10
2023-09-22T09:22:39.918Z,100100.11
2023-09-22T09:23:54.385Z,100109.21
2023-09-22T09:25:00.276Z,100112.38
2023-09-22T09:26:03.846Z,100116.38
2023-09-22T09:27:20.370Z,100113.70
2023-09-22T09:28:24.992Z,100115.48
2023-09-22T09:29:29.610Z,100116.95
2023-09-22T09:30:33.545Z,100117.48
2023-09-22T09:31:49.464Z,100119.01
2023-09-22T09:32:52.594Z,100117.15
2023-09-22T09:33:55.684Z,100119.05
2023-09-22T09:34:59.080Z,100116.11
2023-09-22T09:36:16.196Z,100114.98
2023-09-22T09:37:20.577Z,100120.02
2023-09-22T09:38:30.956Z,100116.95
2023-09-22T09:39:54.394Z,100116.67
2023-09-22T09:40:59.798Z,100118.87
2023-09-22T09:42:03.298Z,100116.80
2023-09-22T09:43:08.163Z,100116.48
2023-09-22T09:44:12.551Z,100117.53
2023-09-22T09:45:18.588Z,100118.73
2023-09-22T09:46:22.819Z,100116.57
2023-09-22T09:47:29.967Z,100121.27
2023-09-22T09:48:38.701Z,100122.48
2023-09-22T09:49:44.323Z,100115.89
2023-09-22T09:50:49.429Z,100114.11
2023-09-22T09:51:53.942Z,100112.81
2023-09-22T09:53:00.412Z,100111.61
2023-09-22T09:54:09.080Z,100110.40
2023-09-22T09:55:14.121Z,100115.16
2023-09-22T09:56:18.689Z,100118.85
2023-09-22T09:57:21.891Z,100124.65
2023-09-22T09:58:26.957Z,100126.14
2023-09-22T09:59:30.157Z,100121.91
2023-09-22T10:00:36.806Z,100120.04
2023-09-22T10:01:41.926Z,100124.02
2023-09-22T10:02:46.921Z,100126.14
2023-09-22T10:03:51.264Z,100124.92
2023-09-22T10:04:56.428Z,100116.08
2023-09-22T10:05:59.671Z,100117.13
2023-09-22T10:07:04.092Z,100107.17
2023-09-22T10:08:08.307Z,100111.79
2023-09-22T10:09:13.100Z,100113.04
2023-09-22T10:10:22.758Z,100107.23
2023-09-22T10:11:26.413Z,100102.39
2023-09-22T10:12:31.567Z,100099.87
2023-09-22T10:13:37.704Z,100102.46
2023-09-22T10:14:48.618Z,100101.04
2023-09-22T10:15:53.633Z,100095.33
2023-09-22T10:16:56.673Z,100091.45
2023-09-22T10:17:59.807Z,100091.18
2023-09-22T10:19:04.262Z,100090.30
2023-09-22T10:20:13.035Z,100086.73
2023-09-22T10:21:37.474Z,100094.54
2023-09-22T10:22:41.294Z,100087.32
2023-09-22T10:24:19.375Z,100086.08
2023-09-22T10:25:33.831Z,100088.55
2023-09-22T10:26:37.506Z,100082.00
2023-09-22T10:29:36.191Z,100075.96
2023-09-22T10:30:45.548Z,100071.43
2023-09-22T10:32:17.290Z,100070.71
2023-09-22T10:33:33.793Z,100073.80
2023-09-22T10:34:51.218Z,100069.77
2023-09-22T10:35:57.510Z,100073.98
2023-09-22T10:37:10.080Z,100075.15
2023-09-22T10:38:13.293Z,100072.34
2023-09-22T10:39:16.706Z,100070.36
2023-09-22T10:40:20.878Z,100066.52
2023-09-22T10:41:23.909Z,100065.77
2023-09-22T10:42:28.166Z,100070.23
2023-09-22T10:43:33.980Z,100070.41
2023-09-22T10:45:00.824Z,100073.09
2023-09-22T10:46:04.645Z,100074.58
2023-09-22T10:47:09.106Z,100076.16
2023-09-22T10:48:13.103Z,100082.40
2023-09-22T10:49:33.731Z,100077.70
2023-09-22T10:50:36.789Z,100076.67
2023-09-22T10:51:44.560Z,100079.85
2023-09-22T10:52:54.577Z,100078.92
2023-09-22T10:54:03.655Z,100078.66
2023-09-22T10:55:07.378Z,100083.91
2023-09-22T10:56:10.750Z,100085.80
2023-09-22T10:57:26.346Z,100086.69
2023-09-22T10:58:29.300Z,100097.48
2023-09-22T10:59:34.876Z,100092.79
2023-09-22T11:00:41.131Z,100093.02
2023-09-22T11:01:47.299Z,100096.92
2023-09-22T11:02:51.042Z,100094.48
2023-09-22T11:03:54.805Z,100102.23
2023-09-22T11:04:58.032Z,100099.56
2023-09-22T11:06:07.698Z,100099.07
2023-09-22T11:07:12.494Z,100097.88
2023-09-22T11:08:17.082Z,100103.20
2023-09-22T11:09:33.651Z,100103.48
2023-09-22T11:10:36.778Z,100100.32
2023-09-22T11:11:45.447Z,100106.84
2023-09-22T11:12:50.293Z,100106.90
2023-09-22T11:13:57.652Z,100106.40
2023-09-22T11:15:03.805Z,100098.77
2023-09-22T11:16:08.200Z,100100.34
2023-09-22T11:17:11.521Z,100095.25
2023-09-22T11:18:25.159Z,100098.52
2023-09-22T11:19:28.181Z,100096.23
2023-09-22T11:20:31.178Z,100093.46
2023-09-22T11:21:42.230Z,100094.56
2023-09-22T11:22:47.391Z,100096.15
2023-09-22T11:23:52.372Z,100096.54
2023-09-22T11:24:55.385Z,100100.14
2023-09-22T11:26:10.399Z,100102.80
2023-09-22T11:27:13.980Z,100098.38
2023-09-22T11:28:18.125Z,100100.20
2023-09-22T11:29:21.117Z,100099.36
2023-09-22T11:30:28.863Z,100097.14
2023-09-22T11:31:33.797Z,100104.48
2023-09-22T11:32:36.972Z,100101.52
2023-09-22T11:33:40.879Z,100102.91
2023-09-22T11:35:06.657Z,100102.73
2023-09-22T11:36:14.279Z,100114.15
2023-09-22T11:37:32.122Z,100105.90
2023-09-22T11:38:40.949Z,100107.96
2023-09-22T11:39:44.314Z,100106.06
2023-09-22T11:40:47.270Z,100107.11
2023-09-22T11:41:50.427Z,100105.54
2023-09-22T11:42:53.433Z,100110.48
2023-09-22T11:43:56.663Z,100109.67
2023-09-22T11:44:59.707Z,100106.13
2023-09-22T11:46:14.880Z,100113.48
2023-09-22T11:47:23.139Z,100115.36
2023-09-22T11:48:26.159Z,100112.98
2023-09-22T11:49:38.402Z,100116.47
2023-09-22T11:50:41.520Z,100116.86
2023-09-22T11:51:56.895Z,100117.17
2023-09-22T11:53:28.924Z,100127.30
2023-09-22T11:54:35.986Z,100128.84
2023-09-22T11:55:39.090Z,100130.04
2023-09-22T11:56:43.244Z,100132.80
2023-09-22T11:57:47.194Z,100129.67
2023-09-22T11:58:50.243Z,100134.26
2023-09-22T11:59:59.816Z,100130.50
2023-09-22T12:01:02.895Z,100130.95
2023-09-22T12:02:07.785Z,100133.30
2023-09-22T12:03:11.282Z,100134.36
2023-09-22T12:04:15.123Z,100132.02
2023-09-22T12:05:18.051Z,100132.10
2023-09-22T12:06:20.974Z,100124.09
2023-09-22T12:07:24.026Z,100123.80
2023-09-22T12:08:27.065Z,100123.60
2023-09-22T12:09:30.267Z,100125.55
2023-09-22T12:10:33.220Z,100127.58
2023-09-22T12:11:36.848Z,100130.05
2023-09-22T12:12:39.960Z,100136.11
2023-09-22T12:13:44.725Z,100139.67
2023-09-22T12:14:48.139Z,100140.73
2023-09-22T12:15:51.057Z,100142.17
2023-09-22T12:16:54.223Z,100142.35
2023-09-22T12:17:57.351Z,100145.59
2023-09-22T12:19:01.174Z,100140.63
2023-09-22T12:20:07.142Z,100141.55
2023-09-22T12:21:10.103Z,100155.75
2023-09-22T12:22:13.037Z,100152.11
2023-09-22T12:23:15.955Z,100158.23
2023-09-22T12:24:19.391Z,100154.71
2023-09-22T12:25:22.481Z,100161.23